createdAt,value
2022-11-24T00:01:35.537Z,3.1
2022-11-24T00:03:35.370Z,3.6
2022-11-24T00:05:38.634Z,4.7
2022-11-24T00:07:38.545Z,4
2022-11-24T00:09:38.290Z,3.2
2022-11-24T00:11:38.083Z,5.1
2022-11-24T00:13:37.837Z,4.5
2022-11-24T00:15:37.712Z,4.5
2022-11-24T00:17:37.415Z,3.5
2022-11-24T00:19:41.150Z,4.2
2022-11-24T00:21:41.006Z,3.9
2022-11-24T00:23:40.707Z,3.3
2022-11-24T00:31:40.035Z,3.6
2022-11-24T00:33:43.261Z,3
2022-11-24T00:35:43.023Z,4.8
2022-11-24T00:37:42.727Z,5.4
2022-11-24T00:38:44.982Z,3.8
2022-11-24T00:40:44.824Z,4.5
2022-11-24T00:42:44.628Z,3.7
2022-11-24T00:44:44.485Z,2.7
2022-11-24T00:46:48.015Z,2.7
2022-11-24T00:48:47.533Z,4.5
2022-11-24T00:50:47.334Z,3
2022-11-24T00:52:47.155Z,5.1
2022-11-24T00:54:46.955Z,5.7
2022-11-24T00:56:46.809Z,4.7
2022-11-24T00:58:46.504Z,4.2
2022-11-24T01:00:49.764Z,3.3
2022-11-24T01:02:49.632Z,3.6
2022-11-24T01:04:49.290Z,3.7
2022-11-24T01:12:48.588Z,3.3
2022-11-24T01:18:51.427Z,3.5
2022-11-24T01:22:50.934Z,3.8
2022-11-24T01:24:50.708Z,3.3
2022-11-24T01:26:50.524Z,2.5
2022-11-24T01:28:53.782Z,4.1
2022-11-24T01:30:53.515Z,3.6
2022-11-24T01:32:53.351Z,3.6
2022-11-24T01:33:54.983Z,3.9
2022-11-24T01:35:54.727Z,4
2022-11-24T01:37:54.525Z,3.2
2022-11-24T01:39:54.370Z,4.3
2022-11-24T01:41:57.710Z,3.8
2022-11-24T01:43:57.454Z,3.2
2022-11-24T01:49:56.731Z,4.2
2022-11-24T01:51:56.590Z,2.7
2022-11-24T01:59:59.198Z,3.3
2022-11-24T02:01:59.132Z,3.2
2022-11-24T02:03:58.773Z,2.9
2022-11-24T02:05:58.659Z,4.2
2022-11-24T02:07:58.488Z,3.7
2022-11-24T02:10:01.824Z,2.5
2022-11-24T02:12:01.584Z,3.4
2022-11-24T02:14:01.257Z,3.7
2022-11-24T02:18:00.865Z,3.1
2022-11-24T02:20:00.717Z,3.3
2022-11-24T02:22:00.524Z,2.4
2022-11-24T02:24:03.775Z,2.2
2022-11-24T02:26:03.570Z,2.8
2022-11-24T02:28:03.335Z,2
2022-11-24T02:33:04.465Z,2.5
2022-11-24T02:35:04.315Z,1.6
2022-11-24T02:37:07.514Z,2.6
2022-11-24T02:39:07.365Z,2.5
2022-11-24T02:41:07.315Z,2.9
2022-11-24T02:43:06.960Z,2.3
2022-11-24T02:45:06.747Z,2.6
2022-11-24T02:47:06.536Z,2.2
2022-11-24T02:49:07.864Z,2.4
2022-11-24T02:51:10.901Z,4.3
2022-11-24T02:53:10.698Z,3.1
2022-11-24T02:55:10.498Z,2.8
2022-11-24T02:57:10.224Z,3.6
2022-11-24T02:59:09.980Z,2.5
2022-11-24T03:01:09.832Z,1.6
2022-11-24T03:03:09.601Z,2.3
2022-11-24T03:05:12.731Z,3.7
2022-11-24T03:07:12.504Z,2.7
2022-11-24T03:09:12.243Z,3.2
2022-11-24T03:11:11.937Z,2.4
2022-11-24T03:13:11.696Z,2.7
2022-11-24T03:15:11.478Z,3
2022-11-24T03:17:11.454Z,2.4
2022-11-24T03:19:14.475Z,2.5
2022-11-24T03:21:14.272Z,3.4
2022-11-24T03:23:14.054Z,3.2
2022-11-24T03:25:33.658Z,3.6
2022-11-24T03:27:33.527Z,3
2022-11-24T03:29:33.229Z,3.9
2022-11-24T03:31:36.694Z,3.2
2022-11-24T03:33:36.271Z,4.7
2022-11-24T03:35:36.008Z,2.6
2022-11-24T03:43:39.116Z,2.7
2022-11-24T03:45:45.948Z,2.7
2022-11-24T03:47:37.843Z,2.7
2022-11-24T03:49:37.605Z,2.4
2022-11-24T03:51:37.322Z,2.1
2022-11-24T03:53:37.189Z,3.6
2022-11-24T03:55:36.913Z,3.5
2022-11-24T03:57:36.634Z,2.9
2022-11-24T03:59:39.829Z,3.3
2022-11-24T04:01:39.652Z,3.5
2022-11-24T04:03:39.280Z,3.2
2022-11-24T04:05:38.983Z,3.4
2022-11-24T04:07:38.868Z,3.2
2022-11-24T04:09:38.567Z,2.8
2022-11-24T04:11:38.383Z,2.7
2022-11-24T04:13:41.643Z,3.2
2022-11-24T04:15:41.469Z,4.1
2022-11-24T04:17:41.259Z,3.3
2022-11-24T04:18:42.867Z,3.2
2022-11-24T04:20:42.557Z,3.4
2022-11-24T04:22:42.300Z,2.3
2022-11-24T04:24:42.072Z,3.5
2022-11-24T04:26:45.302Z,4.5
2022-11-24T04:28:44.998Z,2.7
2022-11-24T04:30:45.265Z,2.8
2022-11-24T04:32:44.566Z,4.7
2022-11-24T04:34:44.366Z,3
2022-11-24T04:36:44.133Z,2.2
2022-11-24T04:39:23.632Z,4.7
2022-11-24T04:40:47.163Z,4
2022-11-24T04:42:46.962Z,3.2
2022-11-24T04:44:46.705Z,3.7
2022-11-24T04:46:46.572Z,3.3
2022-11-24T04:48:46.401Z,2.7
2022-11-24T04:50:46.186Z,3.4
2022-11-24T04:54:49.194Z,3.4
2022-11-24T04:56:48.819Z,3.3
2022-11-24T04:58:48.583Z,3.7
2022-11-24T05:00:48.327Z,2.6
2022-11-24T05:02:48.086Z,5.4
2022-11-24T05:04:47.988Z,3
2022-11-24T05:06:47.626Z,1.8
2022-11-24T05:08:50.844Z,2.8
2022-11-24T05:10:50.655Z,3.2
2022-11-24T05:12:51.450Z,3.5
2022-11-24T05:13:52.015Z,3.7
2022-11-24T05:17:51.609Z,3
2022-11-24T05:19:51.427Z,3.2
2022-11-24T05:21:54.728Z,3.5
2022-11-24T05:23:54.479Z,3.4
2022-11-24T05:25:54.311Z,3.9
2022-11-24T05:27:54.035Z,3.2
2022-11-24T05:31:53.576Z,3.2
2022-11-24T05:35:56.528Z,2.8
2022-11-24T05:37:56.361Z,3.9
2022-11-24T05:39:56.170Z,4.1
2022-11-24T05:41:55.903Z,2.5
2022-11-24T05:43:55.618Z,3.4
2022-11-24T05:45:55.468Z,2.5
2022-11-24T05:47:55.290Z,2.8
2022-11-24T05:49:58.483Z,2.9
2022-11-24T05:51:58.230Z,2.8
2022-11-24T05:53:57.935Z,3.2
2022-11-24T05:55:57.825Z,2
2022-11-24T05:57:57.382Z,2.8
2022-11-24T05:59:57.216Z,2
2022-11-24T06:01:57.122Z,3.1
2022-11-24T06:04:00.317Z,4.2
2022-11-24T06:07:59.852Z,2.6
2022-11-24T06:13:00.835Z,3.7
2022-11-24T06:15:00.547Z,3.7
2022-11-24T06:17:03.681Z,3.6
2022-11-24T06:19:03.411Z,3
2022-11-24T06:21:10.759Z,1.7
2022-11-24T06:23:02.897Z,2.4
2022-11-24T06:27:02.359Z,1.8
2022-11-24T06:29:02.078Z,3.2
2022-11-24T06:31:05.200Z,2.5
2022-11-24T06:33:04.931Z,2.2
2022-11-24T06:43:03.560Z,1.9
2022-11-24T06:47:06.636Z,1.3
2022-11-24T06:49:06.168Z,1.8
2022-11-24T06:51:05.901Z,1.5
2022-11-24T06:53:05.629Z,2.4
2022-11-24T06:55:05.320Z,2.2
2022-11-24T06:57:05.053Z,2.4
2022-11-24T06:59:08.264Z,1.5
2022-11-24T07:01:08.058Z,1.8
2022-11-24T07:03:07.768Z,2.1
2022-11-24T07:05:29.660Z,2.3
2022-11-24T07:07:29.572Z,2.4
2022-11-24T07:09:29.209Z,1.8
2022-11-24T07:11:32.342Z,3.1
2022-11-24T07:13:32.031Z,2.4
2022-11-24T07:15:31.776Z,2
2022-11-24T07:17:31.540Z,2
2022-11-24T07:27:33.742Z,3
2022-11-24T07:41:35.464Z,2.7
2022-11-24T07:43:35.178Z,3.7
2022-11-24T07:45:34.993Z,3.8
2022-11-24T07:47:34.741Z,3.1
2022-11-24T07:53:37.348Z,3.5
2022-11-24T07:55:37.186Z,3.7
2022-11-24T07:57:36.983Z,4.1
2022-11-24T07:58:38.543Z,5.8
2022-11-24T08:00:38.291Z,5.1
2022-11-24T08:02:38.030Z,5
2022-11-24T08:04:37.745Z,5.2
2022-11-24T08:06:44.611Z,5.7
2022-11-24T08:08:40.790Z,5.7
2022-11-24T08:10:40.540Z,5.1
2022-11-24T08:12:41.153Z,5.1
2022-11-24T08:14:40.166Z,5.3
2022-11-24T08:16:39.970Z,5.9
2022-11-24T08:18:39.628Z,5.8
2022-11-24T08:20:42.755Z,5.4
2022-11-24T08:22:42.490Z,6.2
2022-11-24T08:24:42.321Z,5
2022-11-24T08:26:42.130Z,6.5
2022-11-24T08:28:41.860Z,6.8
2022-11-24T08:30:41.593Z,7
2022-11-24T08:32:41.414Z,4.4
2022-11-24T08:34:46.110Z,8
2022-11-24T08:36:45.943Z,6.4
2022-11-24T08:38:45.784Z,6.7
2022-11-24T08:40:45.600Z,6.4
2022-11-24T08:42:45.406Z,6.2
2022-11-24T08:44:45.139Z,6.3
2022-11-24T08:46:44.906Z,6.9
2022-11-24T08:48:48.242Z,6.1
2022-11-24T08:50:48.072Z,7.2
2022-11-24T08:52:47.884Z,6.8
2022-11-24T08:53:49.443Z,6.7
2022-11-24T08:55:49.175Z,6.4
2022-11-24T08:57:48.926Z,6.6
2022-11-24T08:59:48.736Z,7.2
2022-11-24T09:01:52.030Z,6.4
2022-11-24T09:03:51.778Z,5.9
2022-11-24T09:05:52.700Z,6.2
2022-11-24T09:07:51.260Z,6.5
2022-11-24T09:09:50.988Z,6.4
2022-11-24T09:11:50.755Z,6.9
2022-11-24T09:13:50.409Z,6.6
2022-11-24T09:17:53.266Z,6.4
2022-11-24T09:19:52.993Z,5.3
2022-11-24T09:21:52.709Z,5.2
2022-11-24T09:39:53.397Z,5.3
2022-11-24T09:41:53.099Z,4.3
2022-11-24T09:43:56.202Z,4.1
2022-11-24T09:46:06.127Z,4.3
2022-11-24T09:47:55.543Z,3.1
2022-11-24T09:48:57.083Z,3.6
2022-11-24T09:50:56.769Z,5.3
2022-11-24T09:52:56.464Z,4.1
2022-11-24T09:54:58.796Z,3.9
2022-11-24T09:56:59.240Z,4.8
2022-11-24T09:58:58.932Z,4.5
2022-11-24T10:00:58.750Z,5
2022-11-24T10:02:58.312Z,3.7
2022-11-24T10:04:58.121Z,4.8
2022-11-24T10:06:57.699Z,4.2
2022-11-24T10:08:57.371Z,5
2022-11-24T10:13:00.127Z,3.5
2022-11-24T10:14:59.803Z,3.5
2022-11-24T10:16:59.490Z,3.4
2022-11-24T10:20:58.835Z,4
2022-11-24T10:22:58.504Z,4.1
2022-11-24T10:25:01.544Z,3.1
2022-11-24T10:27:01.224Z,3.5
2022-11-24T10:29:00.945Z,3.9
2022-11-24T10:31:00.654Z,3.9
2022-11-24T10:33:00.230Z,2.9
2022-11-24T10:34:59.862Z,3.9
2022-11-24T10:36:59.465Z,3.5
2022-11-24T10:39:02.502Z,3.2
2022-11-24T10:41:02.109Z,3.9
2022-11-24T10:43:01.720Z,3.8
2022-11-24T10:45:23.100Z,3.2
2022-11-24T10:47:22.786Z,3.4
2022-11-24T10:49:22.278Z,2.9
2022-11-24T10:51:25.286Z,3.9
2022-11-24T10:53:24.864Z,3.4
2022-11-24T10:55:24.450Z,2.8
2022-11-24T10:57:24.039Z,3
2022-11-24T11:01:23.289Z,2.4
2022-11-24T11:03:22.970Z,2.8
2022-11-24T11:13:24.112Z,2.9
2022-11-24T11:15:23.710Z,3.1
2022-11-24T11:17:23.251Z,2.1
2022-11-24T11:19:47.834Z,3
2022-11-24T11:21:26.392Z,3.3
2022-11-24T11:23:25.937Z,3.2
2022-11-24T11:25:25.504Z,2.9
2022-11-24T11:27:25.084Z,3.1
2022-11-24T11:35:26.655Z,2.5
2022-11-24T11:37:26.190Z,2.8
2022-11-24T11:38:27.675Z,3.3
2022-11-24T11:40:27.184Z,2.6
2022-11-24T11:42:59.973Z,2.9
2022-11-24T11:44:26.274Z,3.9
2022-11-24T11:48:28.747Z,2.1
2022-11-24T11:50:28.321Z,2.2
2022-11-24T11:52:27.750Z,2.7
2022-11-24T11:54:27.255Z,2.2
2022-11-24T11:56:26.777Z,3.2
2022-11-24T11:58:26.392Z,3.1
2022-11-24T12:00:29.300Z,2.5
2022-11-24T12:02:29.032Z,2.1
2022-11-24T12:04:28.299Z,2
2022-11-24T12:06:27.800Z,1.9
2022-11-24T12:08:27.340Z,2.4
2022-11-24T12:10:26.854Z,3
2022-11-24T12:12:26.345Z,2.9
2022-11-24T12:14:29.281Z,2.3
2022-11-24T12:16:28.890Z,3
2022-11-24T12:18:55.784Z,4.4
2022-11-24T12:20:27.824Z,2.2
2022-11-24T12:22:27.353Z,2.6
2022-11-24T12:24:26.950Z,3.4
2022-11-24T12:26:26.394Z,2.5
2022-11-24T12:28:29.337Z,3.2
2022-11-24T12:30:28.863Z,2.8
2022-11-24T12:32:28.360Z,2.6
2022-11-24T12:33:29.838Z,2.8
2022-11-24T12:35:29.365Z,2.8
2022-11-24T12:37:28.879Z,3.2
2022-11-24T12:41:41.635Z,3.8
2022-11-24T12:45:30.360Z,2.8
2022-11-24T12:51:28.957Z,3.9
2022-11-24T12:53:28.486Z,2.1
2022-11-24T12:59:30.487Z,2.8
2022-11-24T13:01:30.120Z,2.6
2022-11-24T13:03:29.581Z,3.8
2022-11-24T13:05:29.139Z,2.9
2022-11-24T13:07:28.702Z,2.5
2022-11-24T13:09:31.617Z,2.5
2022-11-24T13:15:45.516Z,2.9
2022-11-24T13:17:37.119Z,3.2
2022-11-24T13:21:28.912Z,3.2
2022-11-24T13:23:31.912Z,3.3
2022-11-24T13:25:31.470Z,2.5
2022-11-24T13:27:31.011Z,2.6
2022-11-24T13:30:32.108Z,4.5
2022-11-24T13:32:31.702Z,3.1
2022-11-24T13:34:31.230Z,2.7
2022-11-24T13:36:34.200Z,2.5
2022-11-24T13:38:33.774Z,3.2
2022-11-24T13:40:33.362Z,2.1
2022-11-24T13:42:41.688Z,2.8
2022-11-24T13:44:32.624Z,3.9
2022-11-24T13:46:32.111Z,3.4
2022-11-24T13:48:31.663Z,2.8
2022-11-24T13:50:34.652Z,3.2
2022-11-24T13:52:34.243Z,4.3
2022-11-24T13:54:34.263Z,2.6
2022-11-24T13:56:33.425Z,2.8
2022-11-24T13:58:33.059Z,3.7
2022-11-24T14:00:32.601Z,4.1
2022-11-24T14:04:35.316Z,2.7
2022-11-24T14:06:34.851Z,3.3
2022-11-24T14:08:34.444Z,3.2
2022-11-24T14:10:34.075Z,3.4
2022-11-24T14:14:33.525Z,2.8
2022-11-24T14:16:32.894Z,2.3
2022-11-24T14:18:37.524Z,2.9
2022-11-24T14:20:37.046Z,2.6
2022-11-24T14:24:58.438Z,3.2
2022-11-24T14:26:58.103Z,3.5
2022-11-24T14:28:57.707Z,2.7
2022-11-24T14:31:00.782Z,3.4
2022-11-24T14:35:00.128Z,3.6
2022-11-24T14:36:59.651Z,3.5
2022-11-24T14:38:59.227Z,2.1
2022-11-24T14:40:58.913Z,2.6
2022-11-24T14:42:58.531Z,3.6
2022-11-24T14:45:01.597Z,2.9
2022-11-24T14:47:01.303Z,4.4
2022-11-24T14:49:01.028Z,2.9
2022-11-24T14:53:00.197Z,3.3
2022-11-24T14:55:17.374Z,3.2
2022-11-24T14:56:59.538Z,2.5
2022-11-24T14:59:02.608Z,3.2
2022-11-24T15:01:02.425Z,3.2
2022-11-24T15:03:01.926Z,2.5
2022-11-24T15:05:03.389Z,2.2
2022-11-24T15:07:01.271Z,2.6
2022-11-24T15:09:01.003Z,2.9
2022-11-24T15:11:00.645Z,2.7
2022-11-24T15:13:03.733Z,3.2
2022-11-24T15:15:03.437Z,2.7
2022-11-24T15:17:03.112Z,3.4
2022-11-24T15:18:04.750Z,2.5
2022-11-24T15:20:04.352Z,3
2022-11-24T15:22:04.055Z,2.2
2022-11-24T15:26:06.848Z,3.6
2022-11-24T15:28:06.536Z,3.2
2022-11-24T15:30:06.247Z,3.4
2022-11-24T15:32:06.064Z,3
2022-11-24T15:34:05.755Z,3.7
2022-11-24T15:36:05.563Z,2.2
2022-11-24T15:38:05.262Z,3
2022-11-24T15:40:08.487Z,3.5
2022-11-24T15:42:08.198Z,3.1
2022-11-24T15:44:07.925Z,3
2022-11-24T15:46:07.748Z,3.1
2022-11-24T15:48:07.542Z,3.3
2022-11-24T15:50:07.283Z,3.6
2022-11-24T15:52:07.050Z,3.7
2022-11-24T15:54:10.216Z,3.1
2022-11-24T15:56:09.888Z,4.2
2022-11-24T15:58:09.631Z,4
2022-11-24T16:00:09.392Z,3.9
2022-11-24T16:02:09.234Z,2.7
2022-11-24T16:04:08.883Z,3
2022-11-24T16:10:11.642Z,3.5
2022-11-24T16:13:12.880Z,3.7
2022-11-24T16:15:12.604Z,4
2022-11-24T16:17:12.315Z,3.3
2022-11-24T16:19:12.155Z,4
2022-11-24T16:21:15.615Z,3.7
2022-11-24T16:23:15.797Z,3.7
2022-11-24T16:25:15.595Z,2.5
2022-11-24T16:29:15.065Z,3.7
2022-11-24T16:31:14.965Z,3.6
2022-11-24T16:33:14.608Z,3.7
2022-11-24T16:37:17.548Z,2.4
2022-11-24T16:43:16.795Z,4.1
2022-11-24T16:45:16.610Z,2.5
2022-11-24T16:47:16.443Z,2.8
2022-11-24T16:49:19.581Z,3.5
2022-11-24T16:51:19.560Z,2.7
2022-11-24T16:53:19.076Z,2.8
2022-11-24T16:55:18.883Z,3.7
2022-11-24T16:57:18.636Z,2.8
2022-11-24T16:59:18.432Z,3.2
2022-11-24T17:01:18.198Z,4.2
2022-11-24T17:03:21.375Z,3.2
2022-11-24T17:05:21.125Z,3.5
2022-11-24T17:07:21.035Z,3.2
2022-11-24T17:10:22.298Z,3.3
2022-11-24T17:12:22.115Z,3.7
2022-11-24T17:14:21.935Z,3
2022-11-24T17:16:25.099Z,4.2
2022-11-24T17:18:25.663Z,3.6
2022-11-24T17:20:24.581Z,3.5
2022-11-24T17:22:24.329Z,2.8
2022-11-24T17:30:26.823Z,3.6
2022-11-24T17:32:26.564Z,3.3
2022-11-24T17:34:26.386Z,5
2022-11-24T17:38:25.948Z,3.1
2022-11-24T17:40:28.866Z,3.5
2022-11-24T17:42:25.486Z,3.2
2022-11-24T17:44:28.718Z,4.5
2022-11-24T17:46:28.567Z,3.9
2022-11-24T17:48:28.405Z,3.6
2022-11-24T17:50:28.100Z,3.4
2022-11-24T17:52:27.969Z,3.6
2022-11-24T17:54:46.705Z,2.6
2022-11-24T17:56:27.476Z,3.3
2022-11-24T17:58:30.614Z,4.4
2022-11-24T18:00:30.430Z,3.2
2022-11-24T18:02:30.259Z,3.6
2022-11-24T18:06:51.924Z,3.9
2022-11-24T18:10:54.852Z,4.2
2022-11-24T18:12:54.683Z,3.8
2022-11-24T18:14:54.451Z,3
2022-11-24T18:23:05.650Z,3.7
2022-11-24T18:24:56.834Z,3.2
2022-11-24T18:26:56.607Z,3.6
2022-11-24T18:28:56.320Z,2
2022-11-24T18:30:56.051Z,3.7
2022-11-24T18:32:55.780Z,3.1
2022-11-24T18:34:55.547Z,2.3
2022-11-24T18:36:55.244Z,3.5
2022-11-24T18:38:58.454Z,4.2
2022-11-24T18:40:58.176Z,2.7
2022-11-24T18:42:57.873Z,4.6
2022-11-24T18:44:57.625Z,3.1
2022-11-24T18:46:57.358Z,3
2022-11-24T18:48:57.107Z,3.4
2022-11-24T18:50:56.874Z,2.5
2022-11-24T18:53:00.131Z,3.1
2022-11-24T18:54:59.832Z,3.6
2022-11-24T18:57:03.349Z,2.7
2022-11-24T18:58:01.235Z,4.1
2022-11-24T19:00:00.928Z,2.5
2022-11-24T19:02:00.754Z,4.2
2022-11-24T19:04:00.491Z,2.4
2022-11-24T19:06:03.736Z,2.7
2022-11-24T19:18:02.316Z,2.9
2022-11-24T19:20:05.558Z,3.8
2022-11-24T19:22:05.380Z,2.8
2022-11-24T19:26:04.895Z,3.1
2022-11-24T19:30:04.396Z,3.1
2022-11-24T19:32:04.255Z,4.8
2022-11-24T19:34:07.387Z,4
2022-11-24T19:38:06.815Z,3.8
2022-11-24T19:40:06.645Z,2.7
2022-11-24T19:42:06.458Z,3.3
2022-11-24T19:44:06.212Z,3.2
2022-11-24T19:46:06.107Z,3.8
2022-11-24T19:48:09.232Z,3.2
2022-11-24T19:52:08.881Z,3.4
2022-11-24T19:53:10.424Z,2.9
2022-11-24T19:55:10.205Z,2.7
2022-11-24T19:57:10.030Z,2.8
2022-11-24T19:59:09.865Z,2.6
2022-11-24T20:01:13.215Z,3.3
2022-11-24T20:03:14.479Z,2.6
2022-11-24T20:05:14.221Z,2.7
2022-11-24T20:07:14.109Z,3.5
2022-11-24T20:09:13.792Z,3.8
2022-11-24T20:11:13.655Z,2.9
2022-11-24T20:13:13.494Z,2.2
2022-11-24T20:15:16.809Z,2.5
2022-11-24T20:17:16.624Z,3.2
2022-11-24T20:19:16.465Z,2.5
2022-11-24T20:21:16.262Z,2.4
2022-11-24T20:25:15.860Z,3.5
2022-11-24T20:27:15.579Z,3
2022-11-24T20:29:18.806Z,3
2022-11-24T20:31:18.660Z,3.3
2022-11-24T20:33:18.380Z,2.6
2022-11-24T20:35:18.559Z,2.7
2022-11-24T20:37:17.874Z,3.9
2022-11-24T20:39:17.724Z,2.9
2022-11-24T20:41:17.548Z,2.9
2022-11-24T20:43:20.750Z,2.8
2022-11-24T20:45:20.687Z,2.6
2022-11-24T20:47:20.272Z,2.7
2022-11-24T20:50:21.954Z,2.8
2022-11-24T20:56:24.569Z,2.2
2022-11-24T20:58:24.323Z,1.9
2022-11-24T21:00:24.068Z,3.1
2022-11-24T21:02:23.861Z,2.6
2022-11-24T21:04:23.555Z,2.9
2022-11-24T21:06:23.323Z,2.4
2022-11-24T21:08:23.169Z,2.4
2022-11-24T21:10:26.390Z,4
2022-11-24T21:12:26.149Z,4.2
2022-11-24T21:14:25.932Z,3
2022-11-24T21:16:25.847Z,2.6
2022-11-24T21:20:25.423Z,3.7
2022-11-24T21:24:28.559Z,2.9
2022-11-24T21:28:28.053Z,2.5
2022-11-24T21:30:27.814Z,2.7
2022-11-24T21:32:27.619Z,3.5
2022-11-24T21:34:27.354Z,2.8
2022-11-24T21:36:27.112Z,2.4
2022-11-24T21:38:30.350Z,3.1
2022-11-24T21:40:30.161Z,3.6
2022-11-24T21:42:29.877Z,2.1
2022-11-24T21:44:51.948Z,2.2
2022-11-24T21:46:55.922Z,2.5
2022-11-24T21:48:51.504Z,2
2022-11-24T21:50:54.772Z,3
2022-11-24T21:52:57.114Z,2.6
2022-11-24T21:54:54.434Z,3
2022-11-24T21:56:54.152Z,2.8
2022-11-24T21:58:53.857Z,2.6
2022-11-24T22:00:53.684Z,2.5
2022-11-24T22:02:53.368Z,2.3
2022-11-24T22:04:56.609Z,3.4
2022-11-24T22:06:56.407Z,2.7
2022-11-24T22:08:56.163Z,1.6
2022-11-24T22:12:55.770Z,5.4
2022-11-24T22:18:58.551Z,2.3
2022-11-24T22:22:58.007Z,4.2
2022-11-24T22:24:57.723Z,2.3
2022-11-24T22:26:57.487Z,2.7
2022-11-24T22:28:57.290Z,2.9
2022-11-24T22:30:57.063Z,2.3
2022-11-24T22:33:00.276Z,2.1
2022-11-24T22:34:59.989Z,2.4
2022-11-24T22:36:59.754Z,2.3
2022-11-24T22:40:01.034Z,2.6
2022-11-24T22:42:00.745Z,3.5
2022-11-24T22:44:00.504Z,2.7
2022-11-24T22:46:03.806Z,3.5
2022-11-24T22:48:03.500Z,5
2022-11-24T22:50:03.302Z,6.8
2022-11-24T22:58:02.371Z,2.2
2022-11-24T23:00:05.543Z,3.3
2022-11-24T23:02:05.266Z,2.6
2022-11-24T23:04:05.064Z,2.2
2022-11-24T23:06:04.854Z,2.4
2022-11-24T23:08:04.564Z,3
2022-11-24T23:10:04.331Z,2.6
2022-11-24T23:12:04.154Z,2.8
2022-11-24T23:14:07.265Z,3
2022-11-24T23:16:07.128Z,3
2022-11-24T23:18:06.825Z,2.3
2022-11-24T23:20:06.635Z,2.4
2022-11-24T23:22:06.461Z,2.3
2022-11-24T23:30:08.930Z,3.1
2022-11-24T23:32:08.693Z,3.1
2022-11-24T23:33:10.256Z,2.6
2022-11-24T23:35:13.765Z,2.2
2022-11-24T23:49:11.707Z,3.9
2022-11-24T23:51:11.419Z,2.1
2022-11-24T23:53:11.139Z,2.7
2022-11-24T23:55:14.322Z,2
2022-11-24T23:57:14.072Z,2.4
2022-11-24T23:59:13.850Z,2.7
